createdAt,value
2019-04-07T00:02:01.141Z,7.60
2019-04-07T00:04:28.154Z,7.50
2019-04-07T00:06:55.371Z,7.40
2019-04-07T00:09:23.222Z,7.30
2019-04-07T00:11:50.725Z,7.30
2019-04-07T00:14:18.072Z,7.20
2019-04-07T00:16:44.855Z,7.20
2019-04-07T00:19:12.220Z,7.10
2019-04-07T00:21:39.583Z,7.10
2019-04-07T00:24:06.490Z,7.10
2019-04-07T00:26:33.286Z,7.00
2019-04-07T00:29:00.173Z,7.00
2019-04-07T00:31:26.942Z,6.90
2019-04-07T00:33:53.842Z,6.80
2019-04-07T00:36:20.904Z,6.80
2019-04-07T00:38:48.294Z,6.70
2019-04-07T00:41:15.569Z,6.70
2019-04-07T00:43:42.919Z,6.70
2019-04-07T00:46:09.790Z,6.60
2019-04-07T00:48:36.671Z,6.50
2019-04-07T00:51:03.554Z,6.40
2019-04-07T00:53:30.936Z,6.30
2019-04-07T00:55:57.745Z,6.20
2019-04-07T00:58:24.464Z,6.20
2019-04-07T01:00:51.211Z,6.20
2019-04-07T01:03:18.267Z,6.00
2019-04-07T01:05:45.753Z,5.90
2019-04-07T01:08:12.521Z,5.90
2019-04-07T01:10:39.319Z,5.90
2019-04-07T01:13:07.709Z,5.80
2019-04-07T01:15:35.236Z,5.80
2019-04-07T01:18:02.654Z,5.70
2019-04-07T01:20:29.706Z,5.70
2019-04-07T01:22:56.398Z,5.70
2019-04-07T01:25:23.474Z,5.60
2019-04-07T01:27:51.801Z,5.60
2019-04-07T01:30:19.214Z,5.50
2019-04-07T01:32:46.766Z,5.40
2019-04-07T01:35:13.604Z,5.20
2019-04-07T01:37:40.654Z,5.20
2019-04-07T01:40:10.215Z,5.30
2019-04-07T01:42:51.016Z,5.20
2019-04-07T01:45:29.088Z,5.20
2019-04-07T01:48:12.896Z,5.20
2019-04-07T01:50:47.358Z,5.10
2019-04-07T01:53:31.120Z,5.00
2019-04-07T01:56:06.445Z,4.90
2019-04-07T01:58:51.706Z,4.90
2019-04-07T02:01:20.861Z,4.90
2019-04-07T02:03:49.620Z,4.70
2019-04-07T02:06:34.968Z,4.80
2019-04-07T02:09:18.913Z,4.80
2019-04-07T02:11:50.476Z,4.80
2019-04-07T02:14:19.124Z,4.80
2019-04-07T02:16:57.694Z,4.70
2019-04-07T02:19:35.946Z,4.80
2019-04-07T02:22:14.594Z,4.70
2019-04-07T02:24:48.998Z,4.60
2019-04-07T02:27:20.563Z,4.60
2019-04-07T02:30:07.813Z,4.60
2019-04-07T02:32:46.086Z,4.50
2019-04-07T02:35:17.438Z,4.50
2019-04-07T02:37:52.825Z,4.50
2019-04-07T02:40:21.690Z,4.40
2019-04-07T02:42:50.360Z,4.30
2019-04-07T02:45:19.724Z,4.30
2019-04-07T02:48:01.251Z,4.20
2019-04-07T02:50:39.894Z,4.10
2019-04-07T02:53:09.491Z,4.10
2019-04-07T02:55:55.182Z,4.20
2019-04-07T02:58:32.821Z,4.20
2019-04-07T03:01:01.971Z,4.20
2019-04-07T03:03:46.997Z,4.10
2019-04-07T03:06:37.304Z,4.10
2019-04-07T03:08:55.993Z,4.10
2019-04-07T03:11:33.489Z,4.00
2019-04-07T03:14:17.683Z,4.00
2019-04-07T03:17:02.346Z,3.90
2019-04-07T03:19:31.837Z,3.90
2019-04-07T03:22:12.458Z,3.90
2019-04-07T03:24:44.530Z,3.90
2019-04-07T03:27:13.541Z,3.90
2019-04-07T03:29:45.325Z,3.80
2019-04-07T03:32:19.054Z,3.80
2019-04-07T03:35:05.421Z,3.80
2019-04-07T03:37:53.183Z,3.80
2019-04-07T03:40:22.372Z,3.70
2019-04-07T03:42:53.771Z,3.70
2019-04-07T03:45:26.480Z,3.60
2019-04-07T03:47:55.083Z,3.60
2019-04-07T03:50:26.435Z,3.50
2019-04-07T03:52:54.944Z,3.50
2019-04-07T03:55:41.356Z,3.40
2019-04-07T03:58:27.003Z,3.40
2019-04-07T04:01:19.242Z,3.30
2019-04-07T04:03:48.075Z,3.30
2019-04-07T04:06:32.246Z,3.40
2019-04-07T04:09:17.544Z,3.40
2019-04-07T04:12:03.256Z,3.40
2019-04-07T04:14:34.764Z,3.30
2019-04-07T04:17:02.081Z,3.30
2019-04-07T04:19:30.814Z,3.30
2019-04-07T04:21:58.969Z,3.40
2019-04-07T04:24:26.622Z,3.30
2019-04-07T04:26:53.788Z,3.30
2019-04-07T04:29:23.125Z,3.30
2019-04-07T04:31:49.901Z,3.20
2019-04-07T04:34:17.318Z,3.30
2019-04-07T04:36:44.658Z,3.20
2019-04-07T04:39:12.693Z,3.20
2019-04-07T04:41:40.507Z,3.20
2019-04-07T04:44:07.451Z,3.20
2019-04-07T04:46:36.733Z,3.30
2019-04-07T04:49:30.860Z,3.30
2019-04-07T04:51:58.676Z,3.30
2019-04-07T04:54:25.811Z,3.40
2019-04-07T04:56:53.448Z,3.40
2019-04-07T04:59:20.672Z,3.40
2019-04-07T05:01:48.803Z,3.50
2019-04-07T05:07:05.617Z,3.50
2019-04-07T05:09:41.127Z,3.60
2019-04-07T05:20:34.453Z,3.70
2019-04-07T05:23:01.802Z,3.90
2019-04-07T05:25:29.489Z,4.00
2019-04-07T05:27:57.000Z,4.10
2019-04-07T05:30:23.866Z,4.20
2019-04-07T05:32:50.641Z,4.40
2019-04-07T05:35:17.548Z,4.50
2019-04-07T05:37:44.723Z,4.50
2019-04-07T05:40:12.389Z,4.60
2019-04-07T05:42:39.135Z,4.70
2019-04-07T05:45:06.633Z,4.80
2019-04-07T05:47:33.934Z,4.90
2019-04-07T05:50:03.825Z,5.00
2019-04-07T05:52:29.364Z,5.10
2019-04-07T05:54:56.286Z,5.20
2019-04-07T05:57:24.075Z,5.30
2019-04-07T05:59:51.275Z,5.40
2019-04-07T06:02:18.886Z,5.50
2019-04-07T06:04:46.871Z,5.60
2019-04-07T06:07:14.699Z,5.60
2019-04-07T06:09:42.596Z,5.70
2019-04-07T06:12:09.881Z,5.90
2019-04-07T06:14:38.018Z,6.10
2019-04-07T06:17:05.008Z,6.20
2019-04-07T06:19:31.668Z,6.30
2019-04-07T06:21:58.323Z,6.40
2019-04-07T06:24:26.872Z,6.50
2019-04-07T06:26:53.762Z,6.60
2019-04-07T06:29:24.140Z,6.60
2019-04-07T06:31:49.556Z,6.80
2019-04-07T06:34:16.292Z,6.90
2019-04-07T06:36:43.163Z,7.20
2019-04-07T06:39:09.917Z,7.60
2019-04-07T06:41:36.768Z,7.80
2019-04-07T06:44:11.248Z,7.90
2019-04-07T06:46:36.918Z,8.00
2019-04-07T06:49:13.784Z,8.30
2019-04-07T06:51:54.449Z,8.40
2019-04-07T06:54:35.340Z,8.60
2019-04-07T06:57:21.008Z,8.60
2019-04-07T07:00:02.336Z,8.70
2019-04-07T07:02:37.962Z,8.80
2019-04-07T07:05:23.538Z,9.00
2019-04-07T07:07:53.049Z,9.00
2019-04-07T07:10:35.648Z,9.10
2019-04-07T07:13:05.066Z,9.10
2019-04-07T07:15:48.379Z,9.10
2019-04-07T07:18:20.078Z,9.10
2019-04-07T07:20:47.714Z,9.30
2019-04-07T07:23:16.910Z,9.50
2019-04-07T07:25:43.757Z,10.00
2019-04-07T07:28:12.465Z,10.00
2019-04-07T07:30:39.160Z,10.10
2019-04-07T07:33:09.502Z,10.20
2019-04-07T07:35:34.552Z,10.10
2019-04-07T07:38:01.348Z,10.30
2019-04-07T07:40:28.051Z,10.50
2019-04-07T07:42:56.686Z,10.70
2019-04-07T07:45:23.956Z,10.80
2019-04-07T07:47:53.177Z,11.10
2019-04-07T07:50:20.058Z,11.30
2019-04-07T07:52:51.349Z,11.40
2019-04-07T07:55:16.177Z,11.40
2019-04-07T07:57:43.674Z,11.60
2019-04-07T08:00:11.353Z,11.50
2019-04-07T08:02:38.908Z,11.70
2019-04-07T08:05:05.911Z,11.50
2019-04-07T08:07:33.569Z,11.80
2019-04-07T08:10:00.585Z,12.00
2019-04-07T08:12:28.234Z,12.10
2019-04-07T08:14:57.166Z,12.40
2019-04-07T08:17:23.867Z,12.40
2019-04-07T08:19:51.302Z,12.30
2019-04-07T08:22:27.699Z,12.70
2019-04-07T08:24:51.115Z,12.70
2019-04-07T08:27:16.640Z,13.10
2019-04-07T08:29:43.318Z,13.10
2019-04-07T08:32:10.066Z,13.30
2019-04-07T08:34:37.187Z,13.70
2019-04-07T08:37:04.822Z,13.60
2019-04-07T08:39:34.980Z,14.00
2019-04-07T08:42:01.318Z,13.60
2019-04-07T08:44:29.694Z,13.30
2019-04-07T08:46:58.005Z,13.20
2019-04-07T08:49:25.648Z,13.80
2019-04-07T08:51:52.604Z,14.20
2019-04-07T08:54:19.964Z,14.40
2019-04-07T08:56:46.924Z,14.00
2019-04-07T08:59:16.805Z,13.90
2019-04-07T09:01:42.335Z,14.10
2019-04-07T09:04:09.475Z,13.80
2019-04-07T09:06:37.491Z,14.00
2019-04-07T09:09:07.806Z,14.20
2019-04-07T09:11:34.791Z,14.20
2019-04-07T09:14:04.239Z,14.30
2019-04-07T09:16:32.036Z,15.10
2019-04-07T09:19:19.345Z,15.10
2019-04-07T09:21:54.389Z,15.00
2019-04-07T09:24:32.728Z,15.40
2019-04-07T09:27:23.360Z,15.80
2019-04-07T09:29:51.268Z,16.30
2019-04-07T09:32:31.898Z,15.50
2019-04-07T09:35:05.655Z,16.00
2019-04-07T09:37:33.790Z,16.30
2019-04-07T09:40:05.776Z,15.70
2019-04-07T09:42:41.176Z,16.20
2019-04-07T09:45:12.442Z,17.00
2019-04-07T09:47:55.215Z,16.70
2019-04-07T09:50:28.541Z,17.10
2019-04-07T09:53:00.295Z,16.50
2019-04-07T09:55:46.406Z,15.80
2019-04-07T09:58:16.119Z,15.90
2019-04-07T10:00:45.446Z,17.40
2019-04-07T10:03:25.794Z,18.60
2019-04-07T10:06:09.816Z,17.60
2019-04-07T10:08:43.286Z,18.00
2019-04-07T10:11:11.936Z,16.40
2019-04-07T10:13:57.795Z,19.50
2019-04-07T10:16:31.891Z,21.60
2019-04-07T10:19:03.087Z,19.40
2019-04-07T10:21:32.265Z,22.50
2019-04-07T10:24:01.053Z,23.10
2019-04-07T10:26:30.269Z,20.70
2019-04-07T10:29:05.069Z,19.60
2019-04-07T10:31:33.847Z,20.80
2019-04-07T10:34:09.289Z,24.60
2019-04-07T10:36:50.844Z,28.70
2019-04-07T10:39:19.879Z,29.50
2019-04-07T10:41:51.195Z,27.40
2019-04-07T10:44:26.122Z,24.80
2019-04-07T10:47:03.986Z,23.30
2019-04-07T10:49:35.238Z,22.40
2019-04-07T10:52:04.439Z,20.50
2019-04-07T10:54:33.656Z,21.40
2019-04-07T10:57:12.198Z,19.70
2019-04-07T10:59:41.042Z,19.20
2019-04-07T11:02:19.225Z,20.10
2019-04-07T11:04:48.431Z,19.20
2019-04-07T11:07:20.496Z,21.30
2019-04-07T11:09:49.517Z,21.30
2019-04-07T11:12:18.223Z,20.30
2019-04-07T11:14:46.910Z,19.40
2019-04-07T11:17:16.173Z,19.40
2019-04-07T11:19:44.955Z,20.90
2019-04-07T11:22:19.916Z,23.20
2019-04-07T11:25:01.099Z,23.00
2019-04-07T11:27:46.827Z,23.80
2019-04-07T11:30:30.907Z,24.30
2019-04-07T11:33:11.738Z,26.70
2019-04-07T11:35:46.149Z,26.60
2019-04-07T11:38:17.958Z,25.70
2019-04-07T11:40:50.830Z,25.50
2019-04-07T11:43:28.804Z,25.00
2019-04-07T11:46:06.844Z,24.60
2019-04-07T11:48:44.985Z,24.60
2019-04-07T11:51:24.231Z,24.30
2019-04-07T11:53:55.535Z,25.90
2019-04-07T11:56:30.709Z,28.70
2019-04-07T11:58:59.419Z,29.20
2019-04-07T12:01:46.003Z,27.90
2019-04-07T12:04:16.036Z,27.10
2019-04-07T12:06:49.479Z,26.60
2019-04-07T12:09:17.549Z,26.80
2019-04-07T12:11:55.266Z,27.10
2019-04-07T12:14:27.612Z,29.20
2019-04-07T12:17:07.644Z,30.90
2019-04-07T12:19:54.695Z,31.50
2019-04-07T12:22:32.813Z,28.30
2019-04-07T12:25:18.973Z,27.60
2019-04-07T12:27:47.671Z,27.50
2019-04-07T12:30:35.800Z,28.80
2019-04-07T12:33:07.871Z,27.50
2019-04-07T12:35:43.456Z,26.30
2019-04-07T12:38:28.888Z,25.30
2019-04-07T12:41:13.364Z,24.70
2019-04-07T12:43:50.807Z,23.30
2019-04-07T12:46:23.067Z,22.00
2019-04-07T12:49:13.293Z,22.20
2019-04-07T12:51:42.926Z,22.30
2019-04-07T12:54:23.576Z,22.40
2019-04-07T12:57:09.480Z,22.30
2019-04-07T12:59:50.171Z,20.70
2019-04-07T13:02:30.084Z,20.50
2019-04-07T13:05:03.586Z,20.70
2019-04-07T13:07:44.333Z,20.80
2019-04-07T13:10:20.606Z,20.30
2019-04-07T13:12:49.710Z,20.30
2019-04-07T13:15:29.842Z,19.40
2019-04-07T13:18:03.585Z,18.90
2019-04-07T13:20:44.192Z,19.30
2019-04-07T13:23:24.748Z,19.80
2019-04-07T13:26:10.026Z,20.10
2019-04-07T13:28:39.058Z,20.10
2019-04-07T13:31:16.388Z,19.10
2019-04-07T13:33:45.725Z,18.80
2019-04-07T13:36:21.418Z,18.60
2019-04-07T13:38:50.220Z,18.90
2019-04-07T13:41:43.283Z,19.10
2019-04-07T13:44:13.861Z,19.00
2019-04-07T13:46:43.253Z,18.80
2019-04-07T13:49:32.200Z,18.50
2019-04-07T13:52:09.787Z,18.20
2019-04-07T13:54:55.795Z,17.80
2019-04-07T13:57:42.856Z,17.70
2019-04-07T14:00:28.777Z,17.50
2019-04-07T14:03:06.960Z,17.60
2019-04-07T14:05:41.937Z,17.50
2019-04-07T14:08:22.315Z,17.50
2019-04-07T14:10:58.171Z,17.10
2019-04-07T14:13:43.573Z,16.90
2019-04-07T14:16:12.734Z,17.00
2019-04-07T14:18:46.829Z,17.00
2019-04-07T14:21:17.921Z,17.20
2019-04-07T14:23:54.639Z,17.10
2019-04-07T14:26:26.903Z,17.20
2019-04-07T14:28:55.535Z,16.80
2019-04-07T14:31:41.263Z,16.90
2019-04-07T14:34:27.934Z,16.80
2019-04-07T14:37:15.310Z,16.80
2019-04-07T14:39:44.478Z,16.70
2019-04-07T14:42:15.622Z,16.60
2019-04-07T14:44:47.301Z,16.30
2019-04-07T14:47:32.543Z,16.40
2019-04-07T14:50:01.959Z,16.40
2019-04-07T14:52:41.116Z,16.40
2019-04-07T14:55:28.865Z,16.30
2019-04-07T14:58:15.451Z,16.50
2019-04-07T15:00:45.925Z,16.50
2019-04-07T15:03:12.790Z,16.40
2019-04-07T15:05:46.021Z,16.20
2019-04-07T15:08:33.005Z,16.20
2019-04-07T15:11:19.546Z,16.20
2019-04-07T15:13:47.343Z,16.10
2019-04-07T15:16:14.263Z,16.20
2019-04-07T15:18:41.141Z,16.20
2019-04-07T15:21:07.990Z,16.20
2019-04-07T15:23:34.953Z,16.10
2019-04-07T15:26:02.183Z,16.00
2019-04-07T15:28:30.646Z,15.90
2019-04-07T15:30:57.315Z,15.80
2019-04-07T15:33:24.290Z,15.80
2019-04-07T15:35:51.074Z,15.80
2019-04-07T15:38:20.421Z,15.80
2019-04-07T15:40:47.062Z,15.80
2019-04-07T15:43:14.555Z,15.70
2019-04-07T15:45:44.458Z,15.60
2019-04-07T15:48:10.345Z,15.50
2019-04-07T15:50:38.051Z,15.30
2019-04-07T15:53:06.075Z,15.30
2019-04-07T15:55:45.674Z,15.20
2019-04-07T15:58:02.011Z,15.10
2019-04-07T16:00:32.323Z,15.00
2019-04-07T16:02:57.819Z,15.00
2019-04-07T16:05:24.706Z,15.00
2019-04-07T16:07:53.657Z,15.10
2019-04-07T16:10:22.832Z,15.00
2019-04-07T16:12:52.228Z,14.80
2019-04-07T16:15:19.458Z,14.60
2019-04-07T16:17:47.422Z,14.60
2019-04-07T16:20:22.905Z,14.70
2019-04-07T16:22:45.781Z,14.70
2019-04-07T16:25:12.129Z,14.70
2019-04-07T16:27:43.429Z,14.70
2019-04-07T16:30:11.011Z,14.70
2019-04-07T16:32:37.763Z,14.70
2019-04-07T16:35:05.833Z,14.60
2019-04-07T16:37:33.476Z,14.60
2019-04-07T16:40:03.299Z,14.40
2019-04-07T16:42:29.785Z,14.40
2019-04-07T16:44:56.685Z,14.40
2019-04-07T16:47:26.009Z,14.30
2019-04-07T16:49:52.420Z,14.20
2019-04-07T16:52:19.248Z,14.10
2019-04-07T16:54:47.168Z,13.90
2019-04-07T16:57:13.906Z,13.80
2019-04-07T16:59:42.843Z,13.60
2019-04-07T17:02:10.226Z,13.60
2019-04-07T17:04:37.304Z,13.50
2019-04-07T17:07:05.515Z,13.30
2019-04-07T17:09:34.423Z,13.20
2019-04-07T17:12:02.342Z,13.10
2019-04-07T17:14:34.487Z,13.00
2019-04-07T17:16:59.077Z,12.90
2019-04-07T17:19:27.274Z,12.70
2019-04-07T17:21:56.233Z,12.60
2019-04-07T17:24:27.178Z,12.60
2019-04-07T17:26:52.914Z,12.70
2019-04-07T17:29:21.303Z,12.60
2019-04-07T17:31:48.707Z,12.60
2019-04-07T17:34:15.650Z,12.60
2019-04-07T17:36:42.834Z,12.60
2019-04-07T17:39:24.598Z,12.50
2019-04-07T17:41:52.177Z,12.60
2019-04-07T17:44:29.876Z,12.50
2019-04-07T17:46:58.953Z,12.40
2019-04-07T17:49:44.570Z,12.40
2019-04-07T17:52:13.233Z,12.30
2019-04-07T17:54:58.937Z,12.30
2019-04-07T17:57:27.762Z,12.30
2019-04-07T18:00:05.911Z,12.30
2019-04-07T18:02:34.921Z,12.20
2019-04-07T18:05:14.836Z,12.10
2019-04-07T18:07:59.925Z,12.00
2019-04-07T18:10:45.021Z,12.00
2019-04-07T18:13:43.874Z,12.00
2019-04-07T18:16:06.253Z,12.00
2019-04-07T18:18:54.181Z,11.90
2019-04-07T18:21:25.309Z,11.90
2019-04-07T18:23:59.875Z,11.90
2019-04-07T18:26:31.800Z,11.80
2019-04-07T18:29:06.998Z,11.80
2019-04-07T18:31:44.693Z,11.70
2019-04-07T18:34:23.952Z,11.70
2019-04-07T18:36:55.946Z,11.50
2019-04-07T18:39:25.894Z,11.60
2019-04-07T18:42:14.188Z,11.50
2019-04-07T18:44:42.562Z,11.50
2019-04-07T18:47:20.913Z,11.40
2019-04-07T18:49:53.865Z,11.30
2019-04-07T18:52:34.338Z,11.20
2019-04-07T18:55:07.783Z,11.10
2019-04-07T18:57:46.103Z,11.00
2019-04-07T19:00:15.154Z,10.80
2019-04-07T19:02:46.506Z,10.70
2019-04-07T19:05:15.243Z,10.80
2019-04-07T19:07:48.635Z,10.60
2019-04-07T19:10:26.882Z,10.60
2019-04-07T19:13:17.084Z,10.40
2019-04-07T19:15:51.144Z,10.30
2019-04-07T19:18:20.417Z,10.20
2019-04-07T19:21:09.787Z,10.10
2019-04-07T19:23:38.729Z,10.00
2019-04-07T19:26:24.680Z,9.90
2019-04-07T19:29:10.466Z,9.80
2019-04-07T19:31:43.437Z,9.70
2019-04-07T19:34:12.975Z,9.60
2019-04-07T19:36:44.315Z,9.50
2019-04-07T19:39:14.939Z,9.40
2019-04-07T19:41:53.065Z,9.50
2019-04-07T19:44:36.602Z,9.40
2019-04-07T19:47:10.746Z,9.30
2019-04-07T19:49:56.464Z,9.40
2019-04-07T19:52:34.234Z,9.50
2019-04-07T19:55:04.101Z,9.50
2019-04-07T19:57:36.436Z,9.50
2019-04-07T20:00:21.542Z,9.50
2019-04-07T20:02:57.312Z,9.50
2019-04-07T20:05:29.904Z,9.50
2019-04-07T20:08:02.636Z,9.50
2019-04-07T20:10:40.494Z,9.60
2019-04-07T20:13:26.190Z,9.50
2019-04-07T20:16:13.672Z,9.50
2019-04-07T20:18:47.799Z,9.50
2019-04-07T20:21:39.839Z,9.60
2019-04-07T20:24:07.369Z,9.60
2019-04-07T20:26:39.355Z,9.70
2019-04-07T20:29:25.848Z,9.70
2019-04-07T20:32:00.529Z,9.70
2019-04-07T20:34:42.862Z,9.80
2019-04-07T20:37:17.741Z,9.70
2019-04-07T20:39:56.834Z,9.60
2019-04-07T20:42:31.408Z,9.60
2019-04-07T20:45:07.931Z,9.70
2019-04-07T20:47:48.009Z,9.80
2019-04-07T20:50:16.704Z,9.80
2019-04-07T20:53:12.674Z,9.90
2019-04-07T20:55:36.616Z,9.90
2019-04-07T20:58:22.118Z,10.00
2019-04-07T21:01:04.834Z,10.00
2019-04-07T21:03:49.292Z,10.00
2019-04-07T21:06:33.750Z,10.00
2019-04-07T21:09:11.613Z,10.00
2019-04-07T21:11:47.012Z,9.90
2019-04-07T21:14:15.530Z,9.90
2019-04-07T21:16:49.872Z,9.90
2019-04-07T21:19:25.615Z,9.80
2019-04-07T21:22:06.771Z,9.70
2019-04-07T21:24:38.990Z,9.60
2019-04-07T21:27:08.000Z,9.50
2019-04-07T21:29:44.539Z,9.50
2019-04-07T21:32:27.670Z,9.50
2019-04-07T21:35:01.418Z,9.50
2019-04-07T21:37:35.622Z,9.50
2019-04-07T21:40:13.207Z,9.40
2019-04-07T21:42:50.339Z,9.30
2019-04-07T21:45:36.843Z,9.20
2019-04-07T21:48:11.956Z,9.10
2019-04-07T21:50:43.938Z,9.10
2019-04-07T21:53:13.414Z,9.00
2019-04-07T21:55:45.770Z,8.90
2019-04-07T21:58:14.498Z,8.80
2019-04-07T22:00:53.020Z,8.80
2019-04-07T22:03:39.442Z,8.90
2019-04-07T22:06:11.022Z,8.90
2019-04-07T22:08:42.129Z,8.70
2019-04-07T22:11:09.223Z,8.70
2019-04-07T22:13:36.788Z,8.70
2019-04-07T22:16:04.320Z,8.60
2019-04-07T22:18:31.082Z,8.60
2019-04-07T22:20:57.764Z,8.60
2019-04-07T22:23:25.122Z,8.50
2019-04-07T22:25:52.133Z,8.50
2019-04-07T22:28:19.019Z,8.50
2019-04-07T22:30:47.264Z,8.50
2019-04-07T22:33:14.019Z,8.40
2019-04-07T22:35:42.763Z,8.50
2019-04-07T22:38:10.251Z,8.50
2019-04-07T22:40:39.044Z,8.50
2019-04-07T22:43:05.381Z,8.50
2019-04-07T22:45:32.447Z,8.50
2019-04-07T22:47:59.321Z,8.50
2019-04-07T22:50:25.966Z,8.50
2019-04-07T22:52:53.325Z,8.60
2019-04-07T22:55:20.841Z,8.60
2019-04-07T22:57:48.401Z,8.60
2019-04-07T23:00:17.785Z,8.60
2019-04-07T23:02:46.611Z,8.60
2019-04-07T23:05:13.403Z,8.60
2019-04-07T23:07:40.163Z,8.60
2019-04-07T23:10:07.926Z,8.60
2019-04-07T23:12:34.665Z,8.60
2019-04-07T23:15:01.582Z,8.50
2019-04-07T23:17:28.372Z,8.50
2019-04-07T23:19:55.216Z,8.40
2019-04-07T23:22:22.191Z,8.40
2019-04-07T23:24:48.975Z,8.40
2019-04-07T23:27:15.681Z,8.30
2019-04-07T23:29:42.616Z,8.10
2019-04-07T23:32:09.599Z,8.00
2019-04-07T23:34:36.535Z,7.90
2019-04-07T23:37:03.211Z,7.80
2019-04-07T23:39:29.997Z,7.80
2019-04-07T23:41:57.462Z,7.70
2019-04-07T23:44:24.324Z,7.70
2019-04-07T23:46:50.987Z,7.60
2019-04-07T23:49:18.954Z,7.60
2019-04-07T23:51:45.803Z,7.60
2019-04-07T23:54:12.557Z,7.50
2019-04-07T23:56:41.357Z,7.40
2019-04-07T23:59:10.327Z,7.40
